Terminal Aerodrome Forecast
Issued by NWS Cleveland, OH

Home | Current Version | Previous Version | Text Only | Print | Product List | Glossary On
Versions: 1 2 3 4 5 6 7 8 9 10 11 12 13 14 15 16 17 18 19 20 21 22 23
000
FTUS41 KCLE 060500
TAFTOL
TAF
KTOL 060538Z 0606/0706 08005KT 2SM BR VCSH OVC005
     FM060800 06004KT 1SM BR OVC002
     FM061300 08004KT 3SM BR OVC007
     FM061500 07005KT 5SM BR OVC012
     FM061800 09005KT 6SM HZ BKN020
     FM062000 10005KT P6SM SCT025=

USA.gov is the U.S. government's official web portal to all federal, state and local government web resources and services.